sensor_id;sensor_type;location;lat;lon;timestamp;P1;durP1;ratioP1;P2;durP2;ratioP2
1747;SDS011;871;47.034;15.394;2022-07-10T00:00:05;39.90;;;2.00;;
1747;SDS011;871;47.034;15.394;2022-07-10T00:02:32;38.70;;;1.70;;
1747;SDS011;871;47.034;15.394;2022-07-10T00:04:58;39.40;;;2.23;;
1747;SDS011;871;47.034;15.394;2022-07-10T00:07:24;39.10;;;1.97;;
1747;SDS011;871;47.034;15.394;2022-07-10T00:09:50;38.83;;;1.90;;
1747;SDS011;871;47.034;15.394;2022-07-10T00:12:16;39.83;;;2.07;;
1747;SDS011;871;47.034;15.394;2022-07-10T00:14:42;38.77;;;1.80;;
1747;SDS011;871;47.034;15.394;2022-07-10T00:17:08;38.90;;;1.87;;
1747;SDS011;871;47.034;15.394;2022-07-10T00:19:34;39.03;;;1.90;;
1747;SDS011;871;47.034;15.394;2022-07-10T00:22:00;40.90;;;2.10;;
1747;SDS011;871;47.034;15.394;2022-07-10T00:24:26;38.87;;;1.90;;
1747;SDS011;871;47.034;15.394;2022-07-10T00:26:52;38.90;;;1.70;;
1747;SDS011;871;47.034;15.394;2022-07-10T00:29:18;40.67;;;2.10;;
1747;SDS011;871;47.034;15.394;2022-07-10T00:31:44;38.67;;;1.67;;
1747;SDS011;871;47.034;15.394;2022-07-10T00:34:10;38.90;;;1.87;;
1747;SDS011;871;47.034;15.394;2022-07-10T00:36:37;40.10;;;2.20;;
1747;SDS011;871;47.034;15.394;2022-07-10T00:39:03;39.30;;;2.30;;
1747;SDS011;871;47.034;15.394;2022-07-10T00:41:29;39.53;;;2.13;;
1747;SDS011;871;47.034;15.394;2022-07-10T00:43:56;40.37;;;1.80;;
1747;SDS011;871;47.034;15.394;2022-07-10T00:46:23;38.67;;;1.77;;
1747;SDS011;871;47.034;15.394;2022-07-10T00:48:49;40.43;;;1.80;;
1747;SDS011;871;47.034;15.394;2022-07-10T00:51:16;40.07;;;2.17;;
1747;SDS011;871;47.034;15.394;2022-07-10T00:53:44;38.97;;;2.10;;
1747;SDS011;871;47.034;15.394;2022-07-10T00:56:11;38.73;;;1.93;;
1747;SDS011;871;47.034;15.394;2022-07-10T00:58:37;39.17;;;2.07;;
1747;SDS011;871;47.034;15.394;2022-07-10T01:01:06;39.00;;;1.83;;
1747;SDS011;871;47.034;15.394;2022-07-10T01:03:34;39.10;;;1.70;;
1747;SDS011;871;47.034;15.394;2022-07-10T01:06:00;39.97;;;2.00;;
1747;SDS011;871;47.034;15.394;2022-07-10T01:08:26;39.87;;;2.20;;
1747;SDS011;871;47.034;15.394;2022-07-10T01:10:53;38.77;;;1.80;;
1747;SDS011;871;47.034;15.394;2022-07-10T01:13:19;39.00;;;2.20;;
1747;SDS011;871;47.034;15.394;2022-07-10T01:15:45;38.47;;;1.70;;
1747;SDS011;871;47.034;15.394;2022-07-10T01:18:12;38.40;;;1.47;;
1747;SDS011;871;47.034;15.394;2022-07-10T01:20:38;38.80;;;1.60;;
1747;SDS011;871;47.034;15.394;2022-07-10T01:23:04;38.87;;;1.90;;
1747;SDS011;871;47.034;15.394;2022-07-10T01:25:30;38.90;;;1.60;;
1747;SDS011;871;47.034;15.394;2022-07-10T01:27:56;40.10;;;2.00;;
1747;SDS011;871;47.034;15.394;2022-07-10T01:30:23;38.87;;;1.60;;
1747;SDS011;871;47.034;15.394;2022-07-10T01:32:50;40.70;;;1.73;;
1747;SDS011;871;47.034;15.394;2022-07-10T01:35:17;38.57;;;1.70;;
1747;SDS011;871;47.034;15.394;2022-07-10T01:37:43;38.50;;;1.53;;
1747;SDS011;871;47.034;15.394;2022-07-10T01:40:09;39.00;;;1.80;;
1747;SDS011;871;47.034;15.394;2022-07-10T01:42:35;38.77;;;1.97;;
1747;SDS011;871;47.034;15.394;2022-07-10T01:45:02;39.00;;;1.87;;
1747;SDS011;871;47.034;15.394;2022-07-10T01:47:28;39.30;;;2.00;;
1747;SDS011;871;47.034;15.394;2022-07-10T01:49:54;38.93;;;1.87;;
1747;SDS011;871;47.034;15.394;2022-07-10T01:52:20;39.40;;;2.10;;
1747;SDS011;871;47.034;15.394;2022-07-10T01:54:47;39.83;;;2.50;;
1747;SDS011;871;47.034;15.394;2022-07-10T01:57:13;39.80;;;2.70;;
1747;SDS011;871;47.034;15.394;2022-07-10T01:59:39;39.73;;;2.63;;
1747;SDS011;871;47.034;15.394;2022-07-10T02:02:05;39.73;;;2.37;;
1747;SDS011;871;47.034;15.394;2022-07-10T02:04:31;39.77;;;2.33;;
1747;SDS011;871;47.034;15.394;2022-07-10T02:07:10;39.80;;;1.83;;
1747;SDS011;871;47.034;15.394;2022-07-10T02:09:37;39.17;;;2.10;;
1747;SDS011;871;47.034;15.394;2022-07-10T02:12:04;38.63;;;1.90;;
1747;SDS011;871;47.034;15.394;2022-07-10T02:14:30;39.70;;;2.43;;
1747;SDS011;871;47.034;15.394;2022-07-10T02:16:56;39.17;;;1.90;;
1747;SDS011;871;47.034;15.394;2022-07-10T02:19:22;39.17;;;2.03;;
1747;SDS011;871;47.034;15.394;2022-07-10T02:21:48;39.60;;;2.20;;
1747;SDS011;871;47.034;15.394;2022-07-10T02:24:15;39.47;;;2.17;;
1747;SDS011;871;47.034;15.394;2022-07-10T02:26:41;39.47;;;1.90;;
1747;SDS011;871;47.034;15.394;2022-07-10T02:29:07;39.77;;;2.43;;
1747;SDS011;871;47.034;15.394;2022-07-10T02:31:33;39.17;;;2.10;;
1747;SDS011;871;47.034;15.394;2022-07-10T02:34:02;40.97;;;2.33;;
1747;SDS011;871;47.034;15.394;2022-07-10T02:36:28;38.73;;;1.93;;
1747;SDS011;871;47.034;15.394;2022-07-10T02:38:54;39.83;;;2.00;;
1747;SDS011;871;47.034;15.394;2022-07-10T02:41:21;39.23;;;2.23;;
1747;SDS011;871;47.034;15.394;2022-07-10T02:43:47;39.13;;;2.10;;
1747;SDS011;871;47.034;15.394;2022-07-10T02:46:13;39.07;;;2.20;;
1747;SDS011;871;47.034;15.394;2022-07-10T02:48:39;38.57;;;1.73;;
1747;SDS011;871;47.034;15.394;2022-07-10T02:51:05;39.43;;;2.27;;
1747;SDS011;871;47.034;15.394;2022-07-10T02:53:31;39.00;;;1.87;;
1747;SDS011;871;47.034;15.394;2022-07-10T02:55:57;38.80;;;1.67;;
1747;SDS011;871;47.034;15.394;2022-07-10T02:58:23;38.90;;;1.70;;
1747;SDS011;871;47.034;15.394;2022-07-10T03:00:50;39.30;;;2.33;;
1747;SDS011;871;47.034;15.394;2022-07-10T03:03:16;38.87;;;1.87;;
1747;SDS011;871;47.034;15.394;2022-07-10T03:05:43;39.20;;;2.20;;
1747;SDS011;871;47.034;15.394;2022-07-10T03:08:09;39.50;;;2.43;;
1747;SDS011;871;47.034;15.394;2022-07-10T03:10:35;39.47;;;2.17;;
1747;SDS011;871;47.034;15.394;2022-07-10T03:13:02;39.47;;;2.50;;
1747;SDS011;871;47.034;15.394;2022-07-10T03:15:28;40.63;;;2.43;;
1747;SDS011;871;47.034;15.394;2022-07-10T03:17:54;38.87;;;2.07;;
1747;SDS011;871;47.034;15.394;2022-07-10T03:20:20;39.77;;;2.57;;
1747;SDS011;871;47.034;15.394;2022-07-10T03:22:46;39.00;;;2.10;;
1747;SDS011;871;47.034;15.394;2022-07-10T03:25:12;39.67;;;2.20;;
1747;SDS011;871;47.034;15.394;2022-07-10T03:27:38;39.10;;;2.23;;
1747;SDS011;871;47.034;15.394;2022-07-10T03:30:05;39.20;;;1.97;;
1747;SDS011;871;47.034;15.394;2022-07-10T03:32:31;39.00;;;2.00;;
1747;SDS011;871;47.034;15.394;2022-07-10T03:34:57;38.90;;;1.80;;
1747;SDS011;871;47.034;15.394;2022-07-10T03:37:25;38.77;;;2.10;;
1747;SDS011;871;47.034;15.394;2022-07-10T03:39:51;39.73;;;2.30;;
1747;SDS011;871;47.034;15.394;2022-07-10T03:42:17;39.93;;;2.77;;
1747;SDS011;871;47.034;15.394;2022-07-10T03:44:43;39.90;;;2.30;;
1747;SDS011;871;47.034;15.394;2022-07-10T03:47:10;38.93;;;2.30;;
1747;SDS011;871;47.034;15.394;2022-07-10T03:49:36;38.93;;;2.10;;
1747;SDS011;871;47.034;15.394;2022-07-10T03:52:04;39.13;;;2.33;;
1747;SDS011;871;47.034;15.394;2022-07-10T03:54:30;39.53;;;2.20;;
1747;SDS011;871;47.034;15.394;2022-07-10T03:56:57;39.37;;;2.37;;
1747;SDS011;871;47.034;15.394;2022-07-10T03:59:42;39.13;;;2.20;;
1747;SDS011;871;47.034;15.394;2022-07-10T04:02:08;39.17;;;2.30;;
1747;SDS011;871;47.034;15.394;2022-07-10T04:04:34;41.50;;;2.80;;
1747;SDS011;871;47.034;15.394;2022-07-10T04:07:00;40.30;;;2.50;;
1747;SDS011;871;47.034;15.394;2022-07-10T04:09:26;39.67;;;2.90;;
1747;SDS011;871;47.034;15.394;2022-07-10T04:11:52;39.17;;;2.80;;
1747;SDS011;871;47.034;15.394;2022-07-10T04:14:18;39.20;;;2.87;;
1747;SDS011;871;47.034;15.394;2022-07-10T04:16:44;40.07;;;2.63;;
1747;SDS011;871;47.034;15.394;2022-07-10T04:19:10;38.87;;;2.20;;
1747;SDS011;871;47.034;15.394;2022-07-10T04:21:36;39.40;;;2.33;;
1747;SDS011;871;47.034;15.394;2022-07-10T04:24:03;39.40;;;2.30;;
1747;SDS011;871;47.034;15.394;2022-07-10T04:26:29;40.97;;;2.40;;
1747;SDS011;871;47.034;15.394;2022-07-10T04:28:55;40.20;;;2.60;;
1747;SDS011;871;47.034;15.394;2022-07-10T04:31:21;39.53;;;2.77;;
1747;SDS011;871;47.034;15.394;2022-07-10T04:33:47;38.87;;;2.07;;
1747;SDS011;871;47.034;15.394;2022-07-10T04:36:13;42.63;;;2.63;;
1747;SDS011;871;47.034;15.394;2022-07-10T04:38:39;39.60;;;2.47;;
1747;SDS011;871;47.034;15.394;2022-07-10T04:41:05;40.07;;;2.60;;
1747;SDS011;871;47.034;15.394;2022-07-10T04:43:31;42.07;;;2.77;;
1747;SDS011;871;47.034;15.394;2022-07-10T04:45:57;39.27;;;2.37;;
1747;SDS011;871;47.034;15.394;2022-07-10T04:48:23;40.17;;;2.40;;
1747;SDS011;871;47.034;15.394;2022-07-10T04:50:49;40.10;;;2.53;;
1747;SDS011;871;47.034;15.394;2022-07-10T04:53:15;39.07;;;2.57;;
1747;SDS011;871;47.034;15.394;2022-07-10T04:55:41;39.20;;;2.37;;
1747;SDS011;871;47.034;15.394;2022-07-10T04:58:09;40.03;;;2.60;;
1747;SDS011;871;47.034;15.394;2022-07-10T05:00:35;39.27;;;2.13;;
1747;SDS011;871;47.034;15.394;2022-07-10T05:03:01;39.47;;;2.43;;
1747;SDS011;871;47.034;15.394;2022-07-10T05:05:28;38.70;;;2.37;;
1747;SDS011;871;47.034;15.394;2022-07-10T05:07:54;39.50;;;2.77;;
1747;SDS011;871;47.034;15.394;2022-07-10T05:10:20;40.97;;;2.47;;
1747;SDS011;871;47.034;15.394;2022-07-10T05:12:46;44.97;;;2.70;;
1747;SDS011;871;47.034;15.394;2022-07-10T05:15:12;39.97;;;2.93;;
1747;SDS011;871;47.034;15.394;2022-07-10T05:17:38;39.00;;;2.37;;
1747;SDS011;871;47.034;15.394;2022-07-10T05:20:04;38.87;;;2.10;;
1747;SDS011;871;47.034;15.394;2022-07-10T05:22:30;39.40;;;2.47;;
1747;SDS011;871;47.034;15.394;2022-07-10T05:24:56;39.40;;;2.60;;
1747;SDS011;871;47.034;15.394;2022-07-10T05:27:22;40.00;;;2.63;;
1747;SDS011;871;47.034;15.394;2022-07-10T05:29:50;39.70;;;2.53;;
1747;SDS011;871;47.034;15.394;2022-07-10T05:32:16;40.27;;;2.67;;
1747;SDS011;871;47.034;15.394;2022-07-10T05:34:42;39.97;;;2.60;;
1747;SDS011;871;47.034;15.394;2022-07-10T05:37:08;38.80;;;2.40;;
1747;SDS011;871;47.034;15.394;2022-07-10T05:39:34;39.60;;;2.50;;
1747;SDS011;871;47.034;15.394;2022-07-10T05:42:00;39.67;;;2.80;;
1747;SDS011;871;47.034;15.394;2022-07-10T05:44:26;41.50;;;2.87;;
1747;SDS011;871;47.034;15.394;2022-07-10T05:46:52;42.30;;;2.77;;
1747;SDS011;871;47.034;15.394;2022-07-10T05:49:18;40.93;;;2.50;;
1747;SDS011;871;47.034;15.394;2022-07-10T05:51:44;38.97;;;2.00;;
1747;SDS011;871;47.034;15.394;2022-07-10T05:54:10;39.40;;;2.40;;
1747;SDS011;871;47.034;15.394;2022-07-10T05:56:37;38.77;;;2.37;;
1747;SDS011;871;47.034;15.394;2022-07-10T05:59:07;41.40;;;2.83;;
1747;SDS011;871;47.034;15.394;2022-07-10T06:01:33;39.37;;;2.43;;
1747;SDS011;871;47.034;15.394;2022-07-10T06:03:59;39.40;;;2.73;;
1747;SDS011;871;47.034;15.394;2022-07-10T06:06:26;39.00;;;2.00;;
1747;SDS011;871;47.034;15.394;2022-07-10T06:08:52;38.93;;;2.50;;
1747;SDS011;871;47.034;15.394;2022-07-10T06:11:18;39.20;;;2.60;;
1747;SDS011;871;47.034;15.394;2022-07-10T06:13:44;39.50;;;2.60;;
1747;SDS011;871;47.034;15.394;2022-07-10T06:16:10;40.40;;;2.50;;
1747;SDS011;871;47.034;15.394;2022-07-10T06:18:36;39.50;;;2.70;;
1747;SDS011;871;47.034;15.394;2022-07-10T06:21:02;38.43;;;2.00;;
1747;SDS011;871;47.034;15.394;2022-07-10T06:23:29;39.47;;;2.60;;
1747;SDS011;871;47.034;15.394;2022-07-10T06:25:55;39.40;;;2.43;;
1747;SDS011;871;47.034;15.394;2022-07-10T06:28:21;39.93;;;2.37;;
1747;SDS011;871;47.034;15.394;2022-07-10T06:30:47;40.67;;;2.60;;
1747;SDS011;871;47.034;15.394;2022-07-10T06:33:13;39.60;;;2.87;;
1747;SDS011;871;47.034;15.394;2022-07-10T06:35:39;39.93;;;2.77;;
1747;SDS011;871;47.034;15.394;2022-07-10T06:38:05;39.07;;;2.60;;
1747;SDS011;871;47.034;15.394;2022-07-10T06:40:32;38.90;;;2.23;;
1747;SDS011;871;47.034;15.394;2022-07-10T06:43:01;39.67;;;3.10;;
1747;SDS011;871;47.034;15.394;2022-07-10T06:45:27;39.30;;;2.80;;
1747;SDS011;871;47.034;15.394;2022-07-10T06:47:54;40.63;;;2.80;;
1747;SDS011;871;47.034;15.394;2022-07-10T06:50:26;40.20;;;3.00;;
1747;SDS011;871;47.034;15.394;2022-07-10T06:52:55;40.13;;;3.00;;
1747;SDS011;871;47.034;15.394;2022-07-10T06:55:21;41.27;;;2.60;;
1747;SDS011;871;47.034;15.394;2022-07-10T06:57:48;40.83;;;2.60;;
1747;SDS011;871;47.034;15.394;2022-07-10T07:00:14;39.07;;;2.80;;
1747;SDS011;871;47.034;15.394;2022-07-10T07:02:41;39.80;;;3.30;;
1747;SDS011;871;47.034;15.394;2022-07-10T07:05:07;40.37;;;3.10;;
1747;SDS011;871;47.034;15.394;2022-07-10T07:07:33;39.80;;;3.30;;
1747;SDS011;871;47.034;15.394;2022-07-10T07:10:00;39.60;;;3.27;;
1747;SDS011;871;47.034;15.394;2022-07-10T07:12:27;40.60;;;2.90;;
1747;SDS011;871;47.034;15.394;2022-07-10T07:14:53;40.17;;;3.30;;
1747;SDS011;871;47.034;15.394;2022-07-10T07:17:19;39.43;;;3.00;;
1747;SDS011;871;47.034;15.394;2022-07-10T07:19:50;39.17;;;2.60;;
1747;SDS011;871;47.034;15.394;2022-07-10T07:22:35;40.37;;;3.40;;
1747;SDS011;871;47.034;15.394;2022-07-10T07:25:19;40.07;;;3.00;;
1747;SDS011;871;47.034;15.394;2022-07-10T07:27:45;39.63;;;2.40;;
1747;SDS011;871;47.034;15.394;2022-07-10T07:30:13;39.83;;;2.30;;
1747;SDS011;871;47.034;15.394;2022-07-10T07:32:40;40.40;;;3.10;;
1747;SDS011;871;47.034;15.394;2022-07-10T07:35:07;41.30;;;2.77;;
1747;SDS011;871;47.034;15.394;2022-07-10T07:37:37;40.90;;;2.70;;
1747;SDS011;871;47.034;15.394;2022-07-10T07:40:04;39.90;;;2.20;;
1747;SDS011;871;47.034;15.394;2022-07-10T07:42:31;42.00;;;3.00;;
1747;SDS011;871;47.034;15.394;2022-07-10T07:44:57;40.17;;;1.90;;
1747;SDS011;871;47.034;15.394;2022-07-10T07:47:23;40.37;;;2.10;;
1747;SDS011;871;47.034;15.394;2022-07-10T07:49:49;39.07;;;1.40;;
1747;SDS011;871;47.034;15.394;2022-07-10T07:52:15;40.57;;;2.23;;
1747;SDS011;871;47.034;15.394;2022-07-10T07:54:41;39.47;;;1.50;;
1747;SDS011;871;47.034;15.394;2022-07-10T07:57:07;38.87;;;1.43;;
1747;SDS011;871;47.034;15.394;2022-07-10T07:59:33;39.67;;;2.10;;
1747;SDS011;871;47.034;15.394;2022-07-10T08:02:00;39.60;;;1.80;;
1747;SDS011;871;47.034;15.394;2022-07-10T08:04:26;39.03;;;1.77;;
1747;SDS011;871;47.034;15.394;2022-07-10T08:06:52;39.03;;;1.80;;
1747;SDS011;871;47.034;15.394;2022-07-10T08:09:19;39.30;;;1.60;;
1747;SDS011;871;47.034;15.394;2022-07-10T08:11:45;38.87;;;1.40;;
1747;SDS011;871;47.034;15.394;2022-07-10T08:14:11;39.43;;;2.03;;
1747;SDS011;871;47.034;15.394;2022-07-10T08:16:37;38.93;;;1.50;;
1747;SDS011;871;47.034;15.394;2022-07-10T08:19:03;39.27;;;1.43;;
1747;SDS011;871;47.034;15.394;2022-07-10T08:21:29;39.73;;;1.70;;
1747;SDS011;871;47.034;15.394;2022-07-10T08:23:57;39.30;;;1.17;;
1747;SDS011;871;47.034;15.394;2022-07-10T08:26:23;39.60;;;1.50;;
1747;SDS011;871;47.034;15.394;2022-07-10T08:28:53;39.30;;;1.63;;
1747;SDS011;871;47.034;15.394;2022-07-10T08:31:19;40.90;;;1.70;;
1747;SDS011;871;47.034;15.394;2022-07-10T08:33:45;40.20;;;1.83;;
1747;SDS011;871;47.034;15.394;2022-07-10T08:36:11;39.80;;;1.80;;
1747;SDS011;871;47.034;15.394;2022-07-10T08:38:37;39.97;;;1.43;;
1747;SDS011;871;47.034;15.394;2022-07-10T08:41:03;40.60;;;1.70;;
1747;SDS011;871;47.034;15.394;2022-07-10T08:43:31;39.47;;;1.33;;
1747;SDS011;871;47.034;15.394;2022-07-10T08:45:57;39.70;;;1.57;;
1747;SDS011;871;47.034;15.394;2022-07-10T08:48:24;39.87;;;1.80;;
1747;SDS011;871;47.034;15.394;2022-07-10T08:50:53;39.87;;;1.87;;
1747;SDS011;871;47.034;15.394;2022-07-10T08:55:45;39.60;;;1.50;;
1747;SDS011;871;47.034;15.394;2022-07-10T08:58:12;39.27;;;1.50;;
1747;SDS011;871;47.034;15.394;2022-07-10T09:00:38;40.40;;;1.63;;
1747;SDS011;871;47.034;15.394;2022-07-10T09:03:05;39.97;;;2.10;;
1747;SDS011;871;47.034;15.394;2022-07-10T09:05:31;39.97;;;1.87;;
1747;SDS011;871;47.034;15.394;2022-07-10T09:07:57;40.00;;;2.00;;
1747;SDS011;871;47.034;15.394;2022-07-10T09:10:24;39.77;;;1.63;;
1747;SDS011;871;47.034;15.394;2022-07-10T09:15:20;39.97;;;2.03;;
1747;SDS011;871;47.034;15.394;2022-07-10T09:20:26;40.20;;;2.17;;
1747;SDS011;871;47.034;15.394;2022-07-10T09:22:52;39.37;;;1.80;;
1747;SDS011;871;47.034;15.394;2022-07-10T09:25:18;40.50;;;2.13;;
1747;SDS011;871;47.034;15.394;2022-07-10T09:27:50;39.87;;;1.70;;
1747;SDS011;871;47.034;15.394;2022-07-10T09:30:30;40.07;;;1.90;;
1747;SDS011;871;47.034;15.394;2022-07-10T09:33:18;40.17;;;2.07;;
1747;SDS011;871;47.034;15.394;2022-07-10T09:41:20;40.67;;;2.20;;
1747;SDS011;871;47.034;15.394;2022-07-10T09:44:20;40.47;;;2.20;;
1747;SDS011;871;47.034;15.394;2022-07-10T09:46:39;40.27;;;1.97;;
1747;SDS011;871;47.034;15.394;2022-07-10T09:49:08;40.17;;;2.00;;
1747;SDS011;871;47.034;15.394;2022-07-10T09:51:36;41.37;;;2.30;;
1747;SDS011;871;47.034;15.394;2022-07-10T09:54:02;40.70;;;1.80;;
1747;SDS011;871;47.034;15.394;2022-07-10T09:56:30;40.53;;;2.20;;
1747;SDS011;871;47.034;15.394;2022-07-10T09:58:59;40.40;;;1.93;;
1747;SDS011;871;47.034;15.394;2022-07-10T10:01:27;40.73;;;2.10;;
1747;SDS011;871;47.034;15.394;2022-07-10T10:03:55;40.77;;;2.33;;
1747;SDS011;871;47.034;15.394;2022-07-10T10:06:25;39.90;;;1.70;;
1747;SDS011;871;47.034;15.394;2022-07-10T10:09:06;40.10;;;1.90;;
1747;SDS011;871;47.034;15.394;2022-07-10T10:11:33;40.50;;;2.17;;
1747;SDS011;871;47.034;15.394;2022-07-10T10:14:02;41.00;;;2.57;;
1747;SDS011;871;47.034;15.394;2022-07-10T10:16:28;40.97;;;1.90;;
1747;SDS011;871;47.034;15.394;2022-07-10T10:18:55;40.27;;;2.10;;
1747;SDS011;871;47.034;15.394;2022-07-10T10:21:40;40.00;;;1.80;;
1747;SDS011;871;47.034;15.394;2022-07-10T10:24:06;40.67;;;2.23;;
1747;SDS011;871;47.034;15.394;2022-07-10T10:26:32;40.20;;;1.50;;
1747;SDS011;871;47.034;15.394;2022-07-10T10:29:00;40.90;;;1.80;;
1747;SDS011;871;47.034;15.394;2022-07-10T10:31:29;40.20;;;1.87;;
1747;SDS011;871;47.034;15.394;2022-07-10T10:33:56;40.63;;;2.20;;
1747;SDS011;871;47.034;15.394;2022-07-10T10:39:09;39.70;;;1.70;;
1747;SDS011;871;47.034;15.394;2022-07-10T10:49:19;40.40;;;2.20;;
1747;SDS011;871;47.034;15.394;2022-07-10T10:51:57;40.97;;;2.50;;
1747;SDS011;871;47.034;15.394;2022-07-10T10:54:24;40.30;;;1.80;;
1747;SDS011;871;47.034;15.394;2022-07-10T10:59:45;40.17;;;1.80;;
1747;SDS011;871;47.034;15.394;2022-07-10T11:02:21;40.30;;;2.23;;
1747;SDS011;871;47.034;15.394;2022-07-10T11:04:49;40.40;;;1.97;;
1747;SDS011;871;47.034;15.394;2022-07-10T11:10:42;40.07;;;2.13;;
1747;SDS011;871;47.034;15.394;2022-07-10T11:12:59;39.97;;;1.63;;
1747;SDS011;871;47.034;15.394;2022-07-10T11:15:25;40.40;;;2.00;;
1747;SDS011;871;47.034;15.394;2022-07-10T11:17:52;40.47;;;1.70;;
1747;SDS011;871;47.034;15.394;2022-07-10T11:20:37;40.37;;;1.83;;
1747;SDS011;871;47.034;15.394;2022-07-10T11:28:28;42.28;;;1.70;;
1747;SDS011;871;47.034;15.394;2022-07-10T11:30:58;40.87;;;1.97;;
1747;SDS011;871;47.034;15.394;2022-07-10T11:33:24;40.27;;;1.80;;
1747;SDS011;871;47.034;15.394;2022-07-10T11:35:52;39.90;;;1.80;;
1747;SDS011;871;47.034;15.394;2022-07-10T11:38:25;40.30;;;1.97;;
1747;SDS011;871;47.034;15.394;2022-07-10T11:40:51;39.97;;;1.90;;
1747;SDS011;871;47.034;15.394;2022-07-10T11:43:20;39.77;;;1.60;;
1747;SDS011;871;47.034;15.394;2022-07-10T11:45:50;39.97;;;1.80;;
1747;SDS011;871;47.034;15.394;2022-07-10T11:48:17;40.13;;;1.80;;
1747;SDS011;871;47.034;15.394;2022-07-10T11:50:44;39.63;;;1.50;;
1747;SDS011;871;47.034;15.394;2022-07-10T11:53:10;39.93;;;2.03;;
1747;SDS011;871;47.034;15.394;2022-07-10T11:55:37;40.07;;;1.70;;
1747;SDS011;871;47.034;15.394;2022-07-10T11:58:12;39.77;;;1.57;;
1747;SDS011;871;47.034;15.394;2022-07-10T12:00:38;40.57;;;1.90;;
1747;SDS011;871;47.034;15.394;2022-07-10T12:03:18;40.03;;;1.93;;
1747;SDS011;871;47.034;15.394;2022-07-10T12:05:45;41.13;;;1.90;;
1747;SDS011;871;47.034;15.394;2022-07-10T12:08:11;40.23;;;1.93;;
1747;SDS011;871;47.034;15.394;2022-07-10T12:10:39;40.47;;;2.03;;
1747;SDS011;871;47.034;15.394;2022-07-10T12:13:07;40.43;;;1.90;;
1747;SDS011;871;47.034;15.394;2022-07-10T12:15:43;40.30;;;1.87;;
1747;SDS011;871;47.034;15.394;2022-07-10T12:18:15;40.03;;;1.70;;
1747;SDS011;871;47.034;15.394;2022-07-10T12:20:42;42.95;;;2.20;;
1747;SDS011;871;47.034;15.394;2022-07-10T12:23:10;39.77;;;1.63;;
1747;SDS011;871;47.034;15.394;2022-07-10T12:25:37;40.30;;;2.10;;
1747;SDS011;871;47.034;15.394;2022-07-10T12:28:03;41.50;;;2.60;;
1747;SDS011;871;47.034;15.394;2022-07-10T12:30:47;40.40;;;2.00;;
1747;SDS011;871;47.034;15.394;2022-07-10T12:33:20;39.60;;;1.80;;
1747;SDS011;871;47.034;15.394;2022-07-10T12:35:50;40.17;;;1.97;;
1747;SDS011;871;47.034;15.394;2022-07-10T12:38:18;40.43;;;2.20;;
1747;SDS011;871;47.034;15.394;2022-07-10T12:40:44;40.07;;;1.90;;
1747;SDS011;871;47.034;15.394;2022-07-10T12:43:10;40.00;;;1.90;;
1747;SDS011;871;47.034;15.394;2022-07-10T12:45:39;40.10;;;1.87;;
1747;SDS011;871;47.034;15.394;2022-07-10T12:48:05;40.10;;;2.03;;
1747;SDS011;871;47.034;15.394;2022-07-10T12:50:31;40.13;;;2.20;;
1747;SDS011;871;47.034;15.394;2022-07-10T12:53:10;41.33;;;2.13;;
1747;SDS011;871;47.034;15.394;2022-07-10T12:55:37;40.30;;;1.73;;
1747;SDS011;871;47.034;15.394;2022-07-10T12:58:06;39.90;;;2.37;;
1747;SDS011;871;47.034;15.394;2022-07-10T13:00:45;40.57;;;1.93;;
1747;SDS011;871;47.034;15.394;2022-07-10T13:03:17;40.27;;;2.10;;
1747;SDS011;871;47.034;15.394;2022-07-10T13:05:43;39.83;;;1.90;;
1747;SDS011;871;47.034;15.394;2022-07-10T13:08:17;40.10;;;2.00;;
1747;SDS011;871;47.034;15.394;2022-07-10T13:10:48;40.20;;;1.80;;
1747;SDS011;871;47.034;15.394;2022-07-10T13:13:14;40.33;;;2.10;;
1747;SDS011;871;47.034;15.394;2022-07-10T13:15:41;39.77;;;1.60;;
1747;SDS011;871;47.034;15.394;2022-07-10T13:18:16;40.97;;;2.00;;
1747;SDS011;871;47.034;15.394;2022-07-10T13:20:45;40.73;;;2.07;;
1747;SDS011;871;47.034;15.394;2022-07-10T13:23:12;40.47;;;1.87;;
1747;SDS011;871;47.034;15.394;2022-07-10T13:25:38;40.47;;;2.00;;
1747;SDS011;871;47.034;15.394;2022-07-10T13:28:04;40.37;;;1.70;;
1747;SDS011;871;47.034;15.394;2022-07-10T13:30:31;39.87;;;1.50;;
1747;SDS011;871;47.034;15.394;2022-07-10T13:32:58;39.97;;;1.70;;
1747;SDS011;871;47.034;15.394;2022-07-10T13:35:24;42.10;;;1.90;;
1747;SDS011;871;47.034;15.394;2022-07-10T13:37:52;40.20;;;1.80;;
1747;SDS011;871;47.034;15.394;2022-07-10T13:40:20;39.70;;;1.70;;
1747;SDS011;871;47.034;15.394;2022-07-10T13:42:46;40.27;;;2.07;;
1747;SDS011;871;47.034;15.394;2022-07-10T13:45:12;40.17;;;1.97;;
1747;SDS011;871;47.034;15.394;2022-07-10T13:47:38;40.00;;;1.80;;
1747;SDS011;871;47.034;15.394;2022-07-10T13:50:04;43.30;;;2.07;;
1747;SDS011;871;47.034;15.394;2022-07-10T13:52:31;40.30;;;2.17;;
1747;SDS011;871;47.034;15.394;2022-07-10T13:54:57;42.23;;;1.60;;
1747;SDS011;871;47.034;15.394;2022-07-10T13:57:23;40.07;;;1.70;;
1747;SDS011;871;47.034;15.394;2022-07-10T13:59:50;40.80;;;2.03;;
1747;SDS011;871;47.034;15.394;2022-07-10T14:02:18;39.87;;;1.70;;
1747;SDS011;871;47.034;15.394;2022-07-10T14:04:45;40.17;;;1.67;;
1747;SDS011;871;47.034;15.394;2022-07-10T14:07:11;40.33;;;1.97;;
1747;SDS011;871;47.034;15.394;2022-07-10T14:09:37;40.67;;;2.13;;
1747;SDS011;871;47.034;15.394;2022-07-10T14:12:03;39.97;;;2.00;;
1747;SDS011;871;47.034;15.394;2022-07-10T14:14:30;40.30;;;2.03;;
1747;SDS011;871;47.034;15.394;2022-07-10T14:16:56;40.60;;;2.17;;
1747;SDS011;871;47.034;15.394;2022-07-10T14:19:22;40.20;;;2.03;;
1747;SDS011;871;47.034;15.394;2022-07-10T14:21:48;40.17;;;2.00;;
1747;SDS011;871;47.034;15.394;2022-07-10T14:24:15;40.47;;;1.63;;
1747;SDS011;871;47.034;15.394;2022-07-10T14:26:41;40.37;;;2.07;;
1747;SDS011;871;47.034;15.394;2022-07-10T14:29:07;40.03;;;1.83;;
1747;SDS011;871;47.034;15.394;2022-07-10T14:31:34;39.97;;;2.07;;
1747;SDS011;871;47.034;15.394;2022-07-10T14:34:00;40.10;;;1.73;;
1747;SDS011;871;47.034;15.394;2022-07-10T14:36:26;40.37;;;2.23;;
1747;SDS011;871;47.034;15.394;2022-07-10T14:38:53;40.00;;;1.87;;
1747;SDS011;871;47.034;15.394;2022-07-10T14:41:19;40.57;;;2.13;;
1747;SDS011;871;47.034;15.394;2022-07-10T14:43:46;39.97;;;2.00;;
1747;SDS011;871;47.034;15.394;2022-07-10T14:46:13;39.90;;;1.77;;
1747;SDS011;871;47.034;15.394;2022-07-10T14:48:39;39.40;;;1.50;;
1747;SDS011;871;47.034;15.394;2022-07-10T14:51:05;40.13;;;1.90;;
1747;SDS011;871;47.034;15.394;2022-07-10T14:53:32;40.10;;;2.00;;
1747;SDS011;871;47.034;15.394;2022-07-10T14:56:00;39.90;;;1.67;;
1747;SDS011;871;47.034;15.394;2022-07-10T14:58:27;39.97;;;1.90;;
1747;SDS011;871;47.034;15.394;2022-07-10T15:00:53;39.17;;;1.80;;
1747;SDS011;871;47.034;15.394;2022-07-10T15:03:19;40.10;;;1.80;;
1747;SDS011;871;47.034;15.394;2022-07-10T15:05:45;39.90;;;1.93;;
1747;SDS011;871;47.034;15.394;2022-07-10T15:08:11;40.30;;;2.20;;
1747;SDS011;871;47.034;15.394;2022-07-10T15:10:37;40.23;;;1.80;;
1747;SDS011;871;47.034;15.394;2022-07-10T15:13:04;40.40;;;1.40;;
1747;SDS011;871;47.034;15.394;2022-07-10T15:15:33;39.90;;;1.93;;
1747;SDS011;871;47.034;15.394;2022-07-10T15:17:59;40.20;;;1.87;;
1747;SDS011;871;47.034;15.394;2022-07-10T15:20:25;40.30;;;1.90;;
1747;SDS011;871;47.034;15.394;2022-07-10T15:22:51;40.40;;;2.00;;
1747;SDS011;871;47.034;15.394;2022-07-10T15:25:17;40.33;;;1.90;;
1747;SDS011;871;47.034;15.394;2022-07-10T15:27:43;40.83;;;2.13;;
1747;SDS011;871;47.034;15.394;2022-07-10T15:30:10;39.93;;;1.80;;
1747;SDS011;871;47.034;15.394;2022-07-10T15:32:37;40.27;;;1.97;;
1747;SDS011;871;47.034;15.394;2022-07-10T15:35:04;40.37;;;2.00;;